Appam, North Dakota
Current Conditions -  °F | °C
As of 10:35 AM on Friday 21 Nov 2014 (Local Time) from KD50 Reporting Station
Clear Clear  
Wind Chill: 27°   Ceiling: Unl
Heat Index: 37°   Visibility: 10mi
Dew Point: 28°   Wind: 22mph
Humidity: 70%   Direction: 230°SW
Pressure: 29.57"   Gusts: 31mph
Location:  48.59°N, 103.406°W
Report Text: KD50 211635Z AUTO 23019G27KT 10SM CLR 03/M02 A2957 RMK AO2
Loading
Personal Weather Stations






























Interactive Weather Map New forecast layout! Learn more

10-Day Weather Forecast

Advertisements
Track Severe Weather on mobile